createdAt,value
2019-04-10T00:01:17.346Z,100999.98
2019-04-10T00:03:56.746Z,100999.41
2019-04-10T00:06:34.052Z,101002.91
2019-04-10T00:09:12.764Z,101011.70
2019-04-10T00:11:51.378Z,101010.78
2019-04-10T00:14:28.896Z,101020.59
2019-04-10T00:17:06.981Z,101025.28
2019-04-10T00:19:45.589Z,101031.13
2019-04-10T00:22:24.321Z,101043.66
2019-04-10T00:25:02.328Z,101044.02
2019-04-10T00:27:40.958Z,101051.88
2019-04-10T00:30:20.773Z,101053.41
2019-04-10T00:32:58.565Z,101062.64
2019-04-10T00:35:37.282Z,101060.95
2019-04-10T00:38:15.742Z,101068.05
2019-04-10T00:40:55.232Z,101062.62
2019-04-10T00:43:32.990Z,101068.84
2019-04-10T00:46:10.569Z,101076.89
2019-04-10T00:48:48.472Z,101077.34
2019-04-10T00:51:26.428Z,101083.28
2019-04-10T00:54:05.599Z,101079.80
2019-04-10T00:56:43.640Z,101080.94
2019-04-10T00:59:21.267Z,101083.38
2019-04-10T01:02:00.376Z,101081.77
2019-04-10T01:04:38.378Z,101088.06
2019-04-10T01:07:17.234Z,101094.97
2019-04-10T01:09:55.569Z,101098.04
2019-04-10T01:12:34.200Z,101102.88
2019-04-10T01:15:12.146Z,101099.79
2019-04-10T01:17:50.638Z,101108.55
2019-04-10T01:20:29.339Z,101108.49
2019-04-10T01:23:07.876Z,101107.39
2019-04-10T01:25:46.526Z,101114.06
2019-04-10T01:28:24.792Z,101120.38
2019-04-10T01:31:02.703Z,101124.70
2019-04-10T01:33:40.895Z,101110.77
2019-04-10T01:36:18.623Z,101118.66
2019-04-10T01:38:58.376Z,101113.32
2019-04-10T01:41:36.350Z,101119.30
2019-04-10T01:44:15.275Z,101110.84
2019-04-10T01:46:52.964Z,101110.21
2019-04-10T01:49:31.470Z,101117.73
2019-04-10T01:52:10.882Z,101110.03
2019-04-10T01:54:49.265Z,101112.13
2019-04-10T01:57:28.505Z,101115.14
2019-04-10T02:00:06.673Z,101115.58
2019-04-10T02:03:03.485Z,101116.24
2019-04-10T02:05:42.845Z,101110.80
2019-04-10T02:08:21.448Z,101107.30
2019-04-10T02:11:00.651Z,101100.76
2019-04-10T02:13:39.256Z,101111.25
2019-04-10T02:16:17.209Z,101112.80
2019-04-10T02:18:55.043Z,101115.97
2019-04-10T02:21:32.119Z,101109.11
2019-04-10T02:24:11.135Z,101104.30
2019-04-10T02:26:49.850Z,101108.07
2019-04-10T02:29:28.046Z,101109.25
2019-04-10T02:32:06.347Z,101111.72
2019-04-10T02:34:45.998Z,101114.83
2019-04-10T02:37:25.078Z,101111.70
2019-04-10T02:40:04.977Z,101125.27
2019-04-10T02:42:45.005Z,101121.63
2019-04-10T02:45:23.782Z,101118.36
2019-04-10T02:48:04.020Z,101111.86
2019-04-10T02:50:43.040Z,101114.38
2019-04-10T02:53:21.579Z,101099.39
2019-04-10T02:56:00.446Z,101108.28
2019-04-10T02:58:38.576Z,101104.56
2019-04-10T03:01:17.481Z,101099.92
2019-04-10T03:03:55.747Z,101096.48
2019-04-10T03:06:33.569Z,101094.75
2019-04-10T03:09:28.866Z,101095.33
2019-04-10T03:11:52.019Z,101089.88
2019-04-10T03:14:30.160Z,101088.21
2019-04-10T03:17:08.166Z,101082.45
2019-04-10T03:19:45.849Z,101084.95
2019-04-10T03:22:23.143Z,101087.66
2019-04-10T03:25:00.588Z,101073.61
2019-04-10T03:27:38.720Z,101076.78
2019-04-10T03:30:18.466Z,101071.61
2019-04-10T03:33:16.136Z,101072.52
2019-04-10T03:35:52.220Z,101077.02
2019-04-10T03:38:30.463Z,101086.92
2019-04-10T03:41:08.379Z,101082.52
2019-04-10T03:43:45.843Z,101079.59
2019-04-10T03:46:24.297Z,101073.62
2019-04-10T03:49:01.939Z,101065.84
2019-04-10T03:51:40.843Z,101071.16
2019-04-10T03:54:18.677Z,101067.83
2019-04-10T03:56:56.278Z,101059.06
2019-04-10T03:59:33.778Z,101064.27
2019-04-10T04:02:12.018Z,101066.45
2019-04-10T04:04:50.094Z,101061.44
2019-04-10T04:07:27.424Z,101047.57
2019-04-10T04:10:05.121Z,101049.38
2019-04-10T04:12:42.638Z,101040.48
2019-04-10T04:15:21.884Z,101040.16
2019-04-10T04:18:00.362Z,101034.17
2019-04-10T04:20:39.184Z,101032.14
2019-04-10T04:23:17.235Z,101035.48
2019-04-10T04:25:54.782Z,101026.92
2019-04-10T04:28:34.265Z,101020.70
2019-04-10T04:31:12.695Z,101016.08
2019-04-10T04:33:51.910Z,101016.50
2019-04-10T04:36:29.469Z,101017.55
2019-04-10T04:39:21.175Z,101011.09
2019-04-10T04:41:48.715Z,100993.25
2019-04-10T04:44:27.400Z,100993.25
2019-04-10T04:47:06.192Z,100991.28
2019-04-10T04:49:46.672Z,100986.61
2019-04-10T04:52:25.858Z,100985.86
2019-04-10T04:55:03.954Z,100979.08
2019-04-10T04:57:42.260Z,100972.22
2019-04-10T05:00:19.819Z,100969.86
2019-04-10T05:02:57.736Z,100959.47
2019-04-10T05:05:36.769Z,100962.61
2019-04-10T05:08:15.286Z,100957.67
2019-04-10T05:10:53.741Z,100956.26
2019-04-10T05:13:31.339Z,100952.56
2019-04-10T05:16:10.081Z,100953.95
2019-04-10T05:18:47.791Z,100945.64
2019-04-10T05:21:27.376Z,100948.95
2019-04-10T05:24:05.404Z,100943.09
2019-04-10T05:26:43.217Z,100934.89
2019-04-10T05:29:21.722Z,100926.38
2019-04-10T05:31:58.815Z,100924.41
2019-04-10T05:34:36.877Z,100920.56
2019-04-10T05:37:15.729Z,100911.64
2019-04-10T05:39:53.943Z,100912.05
2019-04-10T05:42:33.062Z,100898.13
2019-04-10T05:45:10.978Z,100899.03
2019-04-10T05:47:48.642Z,100892.61
2019-04-10T05:50:26.292Z,100891.41
2019-04-10T05:53:04.840Z,100886.52
2019-04-10T05:55:42.022Z,100878.46
2019-04-10T05:58:19.831Z,100869.28
2019-04-10T06:01:00.921Z,100863.27
2019-04-10T06:03:38.714Z,100852.50
2019-04-10T06:06:17.318Z,100846.32
2019-04-10T06:08:54.660Z,100839.80
2019-04-10T06:11:33.121Z,100837.20
2019-04-10T06:14:10.732Z,100829.53
2019-04-10T06:16:48.964Z,100825.89
2019-04-10T06:19:26.983Z,100826.53
2019-04-10T06:22:05.203Z,100824.74
2019-04-10T06:24:44.572Z,100814.73
2019-04-10T06:27:22.321Z,100819.66
2019-04-10T06:29:59.881Z,100808.77
2019-04-10T06:32:39.655Z,100800.28
2019-04-10T06:35:17.974Z,100798.36
2019-04-10T06:37:55.125Z,100790.53
2019-04-10T06:40:33.485Z,100784.27
2019-04-10T06:43:11.177Z,100772.77
2019-04-10T06:45:48.742Z,100768.34
2019-04-10T06:48:27.797Z,100760.14
2019-04-10T06:51:06.130Z,100758.95
2019-04-10T06:53:44.928Z,100750.55
2019-04-10T06:56:23.462Z,100743.38
2019-04-10T06:59:00.964Z,100743.88
2019-04-10T07:01:47.738Z,100728.03
2019-04-10T07:04:21.860Z,100734.28
2019-04-10T07:07:04.670Z,100727.75
2019-04-10T07:09:37.925Z,100723.99
2019-04-10T07:12:16.598Z,100722.69
2019-04-10T07:14:58.041Z,100711.55
2019-04-10T07:17:37.395Z,100709.01
2019-04-10T07:20:15.494Z,100702.80
2019-04-10T07:22:53.337Z,100692.91
2019-04-10T07:25:31.931Z,100695.33
2019-04-10T07:28:11.950Z,100689.14
2019-04-10T07:30:49.873Z,100686.34
2019-04-10T07:33:28.782Z,100683.19
2019-04-10T07:36:10.751Z,100667.00
2019-04-10T07:38:46.866Z,100653.41
2019-04-10T07:41:26.378Z,100648.98
2019-04-10T07:44:05.803Z,100654.79
2019-04-10T07:46:43.690Z,100645.17
2019-04-10T07:49:22.188Z,100640.23
2019-04-10T07:52:02.515Z,100644.68
2019-04-10T07:54:43.070Z,100640.57
2019-04-10T07:57:20.285Z,100641.50
2019-04-10T07:59:58.826Z,100628.72
2019-04-10T08:02:38.522Z,100624.05
2019-04-10T08:05:16.770Z,100624.97
2019-04-10T08:07:55.970Z,100625.42
2019-04-10T08:10:34.845Z,100628.15
2019-04-10T08:13:12.445Z,100620.09
2019-04-10T08:15:50.696Z,100625.80
2019-04-10T08:18:28.032Z,100623.06
2019-04-10T08:21:05.384Z,100621.16
2019-04-10T08:23:43.172Z,100620.48
2019-04-10T08:26:21.419Z,100614.55
2019-04-10T08:28:59.849Z,100611.37
2019-04-10T08:31:39.787Z,100606.47
2019-04-10T08:34:17.464Z,100601.22
2019-04-10T08:36:56.825Z,100585.26
2019-04-10T08:39:41.193Z,100589.52
2019-04-10T08:42:14.807Z,100584.07
2019-04-10T08:44:52.327Z,100584.73
2019-04-10T08:47:31.340Z,100580.72
2019-04-10T08:50:09.766Z,100572.74
2019-04-10T08:52:47.274Z,100559.53
2019-04-10T08:55:24.707Z,100555.95
2019-04-10T08:58:02.885Z,100561.94
2019-04-10T09:00:40.723Z,100549.42
2019-04-10T09:03:19.492Z,100546.91
2019-04-10T09:05:57.352Z,100543.61
2019-04-10T09:08:37.152Z,100544.35
2019-04-10T09:11:15.894Z,100539.67
2019-04-10T09:13:53.534Z,100542.13
2019-04-10T09:16:31.058Z,100535.66
2019-04-10T09:19:09.772Z,100530.28
2019-04-10T09:21:47.926Z,100527.50
2019-04-10T09:24:25.830Z,100517.92
2019-04-10T09:27:04.604Z,100518.53
2019-04-10T09:29:42.637Z,100520.58
2019-04-10T09:32:20.220Z,100516.62
2019-04-10T09:34:58.764Z,100513.12
2019-04-10T09:37:37.952Z,100519.87
2019-04-10T09:40:16.324Z,100512.41
2019-04-10T09:42:53.944Z,100514.17
2019-04-10T09:45:31.306Z,100519.04
2019-04-10T09:48:09.278Z,100519.23
2019-04-10T09:50:48.160Z,100516.65
2019-04-10T09:53:26.656Z,100514.08
2019-04-10T09:56:05.232Z,100522.89
2019-04-10T09:58:43.210Z,100531.09
2019-04-10T10:01:22.043Z,100531.03
2019-04-10T10:03:59.431Z,100530.64
2019-04-10T10:06:38.437Z,100541.93
2019-04-10T10:09:17.631Z,100549.25
2019-04-10T10:11:55.702Z,100542.50
2019-04-10T10:14:33.742Z,100538.94
2019-04-10T10:17:10.837Z,100545.95
2019-04-10T10:19:50.179Z,100543.84
2019-04-10T10:22:29.332Z,100543.08
2019-04-10T10:25:08.530Z,100548.44
2019-04-10T10:27:46.607Z,100549.97
2019-04-10T10:30:25.196Z,100548.63
2019-04-10T10:33:03.650Z,100556.20
2019-04-10T10:35:41.233Z,100565.03
2019-04-10T10:38:21.089Z,100564.04
2019-04-10T10:40:59.316Z,100556.48
2019-04-10T10:43:37.506Z,100568.13
2019-04-10T10:46:15.512Z,100566.19
2019-04-10T10:48:52.423Z,100564.79
2019-04-10T10:51:30.927Z,100561.89
2019-04-10T10:54:10.582Z,100569.47
2019-04-10T10:56:48.865Z,100567.64
2019-04-10T10:59:27.360Z,100574.64
2019-04-10T11:02:06.405Z,100575.01
2019-04-10T11:04:45.290Z,100568.53
2019-04-10T11:07:23.003Z,100558.47
2019-04-10T11:10:01.564Z,100563.84
2019-04-10T11:12:39.549Z,100563.12
2019-04-10T11:15:18.518Z,100573.70
2019-04-10T11:17:57.815Z,100562.02
2019-04-10T11:20:36.358Z,100561.77
2019-04-10T11:23:14.571Z,100557.38
2019-04-10T11:25:53.885Z,100560.19
2019-04-10T11:28:33.656Z,100565.83
2019-04-10T11:31:11.123Z,100579.09
2019-04-10T11:33:52.922Z,100586.47
2019-04-10T11:36:29.883Z,100590.61
2019-04-10T11:39:21.716Z,100593.06
2019-04-10T11:41:53.091Z,100589.03
2019-04-10T11:44:33.110Z,100591.55
2019-04-10T11:47:10.638Z,100593.27
2019-04-10T11:49:49.657Z,100588.45
2019-04-10T11:55:12.704Z,100584.91
2019-04-10T11:57:49.003Z,100589.69
2019-04-10T12:03:22.067Z,100593.19
2019-04-10T12:05:59.833Z,100595.98
2019-04-10T12:09:03.702Z,100594.39
2019-04-10T12:11:19.945Z,100599.91
2019-04-10T12:13:58.930Z,100615.88
2019-04-10T12:16:36.958Z,100616.17
2019-04-10T12:19:15.616Z,100628.84
2019-04-10T12:21:53.845Z,100635.56
2019-04-10T12:24:32.162Z,100627.48
2019-04-10T12:27:09.510Z,100634.98
2019-04-10T12:29:48.845Z,100637.19
2019-04-10T12:32:26.889Z,100633.87
2019-04-10T12:35:04.673Z,100641.73
2019-04-10T12:37:43.337Z,100643.85
2019-04-10T12:40:21.528Z,100636.63
2019-04-10T12:42:59.377Z,100648.51
2019-04-10T12:45:38.231Z,100655.17
2019-04-10T12:48:16.941Z,100659.91
2019-04-10T12:50:55.138Z,100662.83
2019-04-10T12:53:33.829Z,100664.34
2019-04-10T12:56:11.456Z,100660.23
2019-04-10T12:58:49.355Z,100664.81
2019-04-10T13:01:28.893Z,100672.38
2019-04-10T13:04:07.552Z,100680.41
2019-04-10T13:06:46.400Z,100692.01
2019-04-10T13:09:24.250Z,100697.05
2019-04-10T13:12:02.814Z,100705.80
2019-04-10T13:14:41.277Z,100711.58
2019-04-10T13:17:20.279Z,100716.84
2019-04-10T13:19:58.333Z,100717.53
2019-04-10T13:22:36.214Z,100718.18
2019-04-10T13:25:14.449Z,100722.69
2019-04-10T13:27:52.723Z,100717.66
2019-04-10T13:30:40.393Z,100714.16
2019-04-10T13:33:10.385Z,100709.05
2019-04-10T13:35:47.609Z,100717.27
2019-04-10T13:38:30.164Z,100712.13
2019-04-10T13:41:04.162Z,100716.41
2019-04-10T13:43:42.266Z,100722.70
2019-04-10T13:46:20.521Z,100727.05
2019-04-10T13:48:59.738Z,100726.92
2019-04-10T13:51:39.295Z,100726.92
2019-04-10T13:54:17.612Z,100727.89
2019-04-10T13:56:57.180Z,100724.66
2019-04-10T13:59:35.189Z,100733.88
2019-04-10T14:02:19.564Z,100744.33
2019-04-10T14:04:59.708Z,100738.98
2019-04-10T14:07:38.155Z,100740.41
2019-04-10T14:10:16.224Z,100736.84
2019-04-10T14:12:53.642Z,100727.47
2019-04-10T14:15:31.792Z,100730.61
2019-04-10T14:18:10.235Z,100738.08
2019-04-10T14:20:48.651Z,100730.77
2019-04-10T14:23:29.797Z,100735.44
2019-04-10T14:26:20.310Z,100725.61
2019-04-10T14:28:59.609Z,100729.55
2019-04-10T14:31:51.055Z,100733.73
2019-04-10T14:34:28.669Z,100739.58
2019-04-10T14:37:09.511Z,100732.09
2019-04-10T14:39:47.689Z,100734.75
2019-04-10T14:42:26.612Z,100736.47
2019-04-10T14:45:05.692Z,100739.52
2019-04-10T14:47:43.458Z,100756.14
2019-04-10T14:50:21.858Z,100759.64
2019-04-10T14:53:01.309Z,100754.05
2019-04-10T14:55:39.735Z,100757.03
2019-04-10T14:58:25.163Z,100765.67
2019-04-10T15:00:57.705Z,100767.30
2019-04-10T15:03:36.171Z,100768.73
2019-04-10T15:06:13.759Z,100757.58
2019-04-10T15:08:52.199Z,100766.67
2019-04-10T15:11:30.861Z,100769.14
2019-04-10T15:14:08.186Z,100765.79
2019-04-10T15:16:53.460Z,100769.05
2019-04-10T15:19:26.860Z,100774.69
2019-04-10T15:22:04.295Z,100788.77
2019-04-10T15:24:42.763Z,100794.61
2019-04-10T15:27:21.460Z,100791.06
2019-04-10T15:29:59.657Z,100789.44
2019-04-10T15:32:38.463Z,100790.67
2019-04-10T15:35:16.020Z,100790.23
2019-04-10T15:37:55.465Z,100785.91
2019-04-10T15:40:34.551Z,100788.34
2019-04-10T15:43:12.937Z,100774.70
2019-04-10T15:45:50.470Z,100774.25
2019-04-10T15:48:29.469Z,100773.44
2019-04-10T15:51:07.763Z,100775.41
2019-04-10T15:53:45.255Z,100779.06
2019-04-10T15:56:23.512Z,100784.25
2019-04-10T15:59:01.211Z,100777.91
2019-04-10T16:01:39.683Z,100777.71
2019-04-10T16:04:17.195Z,100773.79
2019-04-10T16:06:54.544Z,100767.00
2019-04-10T16:09:44.607Z,100766.39
2019-04-10T16:12:14.824Z,100765.69
2019-04-10T16:14:52.799Z,100769.88
2019-04-10T16:17:44.034Z,100766.05
2019-04-10T16:20:30.379Z,100764.55
2019-04-10T16:23:21.918Z,100769.49
2019-04-10T16:25:59.369Z,100766.64
2019-04-10T16:28:37.952Z,100760.50
2019-04-10T16:31:17.438Z,100756.42
2019-04-10T16:33:55.098Z,100758.16
2019-04-10T16:36:33.294Z,100750.22
2019-04-10T16:39:15.449Z,100744.05
2019-04-10T16:41:54.506Z,100744.09
2019-04-10T16:44:33.189Z,100743.39
2019-04-10T16:47:12.099Z,100742.84
2019-04-10T16:49:49.570Z,100740.81
2019-04-10T16:52:27.654Z,100736.88
2019-04-10T16:55:06.283Z,100736.08
2019-04-10T16:57:45.330Z,100732.72
2019-04-10T17:00:24.286Z,100712.89
2019-04-10T17:03:01.894Z,100712.50
2019-04-10T17:05:41.744Z,100710.02
2019-04-10T17:08:19.633Z,100710.58
2019-04-10T17:10:56.914Z,100699.14
2019-04-10T17:13:35.647Z,100701.91
2019-04-10T17:16:15.453Z,100692.45
2019-04-10T17:18:52.949Z,100693.95
2019-04-10T17:21:31.134Z,100690.16
2019-04-10T17:24:09.214Z,100693.68
2019-04-10T17:26:48.786Z,100690.58
2019-04-10T17:29:27.252Z,100692.55
2019-04-10T17:32:06.763Z,100687.00
2019-04-10T17:34:45.137Z,100683.05
2019-04-10T17:37:23.429Z,100682.55
2019-04-10T17:40:02.174Z,100675.47
2019-04-10T17:42:41.255Z,100674.98
2019-04-10T17:45:20.634Z,100681.43
2019-04-10T17:47:59.335Z,100669.45
2019-04-10T17:50:37.486Z,100671.95
2019-04-10T17:53:16.558Z,100669.39
2019-04-10T17:55:54.067Z,100666.36
2019-04-10T17:58:35.879Z,100667.00
2019-04-10T18:01:18.847Z,100665.16
2019-04-10T18:04:00.537Z,100666.34
2019-04-10T18:06:36.598Z,100662.10
2019-04-10T18:09:15.830Z,100661.09
2019-04-10T18:11:54.288Z,100668.36
2019-04-10T18:14:34.628Z,100681.64
2019-04-10T18:17:11.100Z,100678.30
2019-04-10T18:19:50.240Z,100669.48
2019-04-10T18:22:28.885Z,100673.33
2019-04-10T18:25:05.966Z,100661.70
2019-04-10T18:27:43.444Z,100675.00
2019-04-10T18:30:21.680Z,100675.18
2019-04-10T18:33:00.151Z,100667.40
2019-04-10T18:35:40.717Z,100665.23
2019-04-10T18:38:19.546Z,100663.90
2019-04-10T18:41:02.073Z,100659.58
2019-04-10T18:43:36.353Z,100669.21
2019-04-10T18:46:17.615Z,100675.09
2019-04-10T18:48:54.934Z,100672.55
2019-04-10T18:51:34.083Z,100663.72
2019-04-10T18:54:12.443Z,100659.25
2019-04-10T18:56:49.783Z,100665.66
2019-04-10T18:59:53.049Z,100670.41
2019-04-10T19:02:45.919Z,100666.80
2019-04-10T19:05:27.841Z,100664.03
2019-04-10T19:08:07.402Z,100663.06
2019-04-10T19:10:45.500Z,100674.84
2019-04-10T19:13:24.837Z,100666.99
2019-04-10T19:16:03.401Z,100661.87
2019-04-10T19:18:40.832Z,100662.10
2019-04-10T19:21:19.602Z,100661.94
2019-04-10T19:23:57.597Z,100661.75
2019-04-10T19:26:35.871Z,100665.94
2019-04-10T19:29:13.495Z,100667.86
2019-04-10T19:31:54.401Z,100664.88
2019-04-10T19:34:32.141Z,100669.65
2019-04-10T19:37:09.727Z,100670.89
2019-04-10T19:39:48.764Z,100663.81
2019-04-10T19:42:27.344Z,100666.47
2019-04-10T19:45:05.775Z,100671.79
2019-04-10T19:47:44.507Z,100663.44
2019-04-10T19:50:23.420Z,100660.28
2019-04-10T19:53:01.239Z,100664.13
2019-04-10T19:55:40.058Z,100669.38
2019-04-10T19:58:18.261Z,100662.00
2019-04-10T20:00:56.831Z,100661.14
2019-04-10T20:03:35.358Z,100653.64
2019-04-10T20:06:14.224Z,100658.98
2019-04-10T20:08:52.228Z,100652.09
2019-04-10T20:11:37.792Z,100644.06
2019-04-10T20:14:10.443Z,100646.64
2019-04-10T20:16:49.366Z,100646.84
2019-04-10T20:19:26.939Z,100642.99
2019-04-10T20:22:04.493Z,100639.84
2019-04-10T20:24:43.173Z,100634.94
2019-04-10T20:27:21.624Z,100633.73
2019-04-10T20:29:59.396Z,100638.75
2019-04-10T20:32:38.476Z,100633.25
2019-04-10T20:35:16.210Z,100627.83
2019-04-10T20:37:53.938Z,100620.22
2019-04-10T20:40:31.430Z,100621.14
2019-04-10T20:43:10.954Z,100620.59
2019-04-10T20:45:49.599Z,100610.89
2019-04-10T20:48:28.727Z,100612.02
2019-04-10T20:51:06.531Z,100619.04
2019-04-10T20:53:44.294Z,100617.66
2019-04-10T20:56:22.422Z,100622.89
2019-04-10T20:59:00.006Z,100627.83
2019-04-10T21:01:37.733Z,100631.11
2019-04-10T21:04:15.175Z,100629.59
2019-04-10T21:06:52.956Z,100633.18
2019-04-10T21:09:32.084Z,100633.18
2019-04-10T21:12:13.157Z,100640.84
2019-04-10T21:14:49.773Z,100634.79
2019-04-10T21:17:27.828Z,100638.53
2019-04-10T21:20:05.722Z,100629.39
2019-04-10T21:22:43.568Z,100637.62
2019-04-10T21:25:21.189Z,100638.16
2019-04-10T21:28:00.331Z,100634.69
2019-04-10T21:30:56.637Z,100643.52
2019-04-10T21:34:01.535Z,100647.91
2019-04-10T21:36:41.352Z,100649.18
2019-04-10T21:39:19.167Z,100651.88
2019-04-10T21:42:10.255Z,100656.27
2019-04-10T21:44:37.212Z,100655.98
2019-04-10T21:47:15.173Z,100660.97
2019-04-10T21:49:53.418Z,100663.72
2019-04-10T21:52:32.651Z,100663.90
2019-04-10T21:55:10.699Z,100663.86
2019-04-10T21:57:49.134Z,100670.08
2019-04-10T22:00:41.371Z,100668.88
2019-04-10T22:03:21.177Z,100676.10
2019-04-10T22:06:16.059Z,100683.83
2019-04-10T22:09:12.628Z,100685.17
2019-04-10T22:11:53.153Z,100686.61
2019-04-10T22:14:31.047Z,100690.63
2019-04-10T22:17:10.800Z,100684.05
2019-04-10T22:19:49.038Z,100686.33
2019-04-10T22:22:26.675Z,100700.16
2019-04-10T22:25:05.389Z,100700.97
2019-04-10T22:27:43.532Z,100706.88
2019-04-10T22:30:21.137Z,100716.27
2019-04-10T22:32:59.816Z,100719.09
2019-04-10T22:35:39.820Z,100722.05
2019-04-10T22:38:17.653Z,100726.01
2019-04-10T22:40:56.029Z,100735.78
2019-04-10T22:43:33.966Z,100744.53
2019-04-10T22:46:13.045Z,100737.60
2019-04-10T22:48:50.450Z,100744.69
2019-04-10T22:51:30.059Z,100743.25
2019-04-10T22:54:08.132Z,100742.57
2019-04-10T22:56:45.756Z,100743.33
2019-04-10T22:59:24.221Z,100748.48
2019-04-10T23:02:07.339Z,100750.27
2019-04-10T23:04:42.749Z,100744.80
2019-04-10T23:07:21.947Z,100748.20
2019-04-10T23:10:00.460Z,100750.30
2019-04-10T23:12:50.361Z,100757.20
2019-04-10T23:15:19.538Z,100758.05
2019-04-10T23:17:57.761Z,100757.20
2019-04-10T23:20:36.149Z,100752.70
2019-04-10T23:23:15.523Z,100759.63
2019-04-10T23:25:53.100Z,100771.70
2019-04-10T23:28:31.534Z,100778.42
2019-04-10T23:31:10.084Z,100783.41
2019-04-10T23:33:48.283Z,100787.48
2019-04-10T23:36:26.477Z,100796.37
2019-04-10T23:39:06.125Z,100800.16
2019-04-10T23:41:43.408Z,100798.39
2019-04-10T23:44:20.844Z,100799.52
2019-04-10T23:46:58.402Z,100805.23
2019-04-10T23:49:37.443Z,100811.82
2019-04-10T23:52:15.817Z,100812.25
2019-04-10T23:54:54.352Z,100811.02
2019-04-10T23:57:31.566Z,100816.95
